x

N01 - Northeast Channel (44024) Wave Buoy

5:04am - Thu 3rd Sep 2015 All times are ADT. -3 hours from GMT.

  • Sig Wave height 3.0ft
  • Peak Period 5s
  • Wind
    16mph, 18mph gusts
  • Sea Temp 66°f
  • Air Temp 67°f
  • Sea Pressure 1010.1mb
  • N01 - Northeast Channel
  • N01 - Northeast Channel

More Historic Weather Station data

Upgrade to MSW Pro to gain access to the past 30 days of data for over 8000 Wavebouys and Weather Stations around the globe.

Join Pro

Comparision Forecast

View Surf forecast
   
Thu 09/03 5:04am 3ft 5s 16 18 mph 1010.1mb 66f 67f
4:04am 3.5ft 5s 13 16 mph 1010.3mb 66f 66f
3:04am 2.5ft 5s 13 16 mph 1010.6mb 66f 66f
2:04am 2.5ft 5s 11 13 mph 1011mb 66f 66f
1:04am 2.5ft 5s 13 16 mph 1011.3mb 66f 66f
12:04am 2.5ft 4s 16 18 mph 1011.4mb 66f 66f
Wed 09/02 11:04pm 2ft 4s 16 18 mph 1011.6mb 66f 66f
10:04pm 2.5ft 4s 16 18 mph 1011.7mb 67f 66f
9:04pm 2.5ft 4s 16 18 mph 1011.8mb 67f 66f
8:04pm 3ft 8s 13 16 mph 1012.1mb 68f 66f
7:04pm 3ft 11s 16 18 mph 1012.5mb 68f 66f
6:04pm 2.5ft 6s 16 18 mph 1013mb 67f 66f
5:04pm 2.5ft 5s 13 16 mph 1013.3mb 67f 67f
4:04pm 2.5ft 8s 13 16 mph 1013.7mb 66f 67f
3:04pm 2ft 5s 11 13 mph 1014.1mb 66f 67f
2:04pm 2.5ft 6s 9 11 mph 1014.7mb 66f 66f
1:04pm 2ft 6s 7 9 mph 1015.1mb 67f 66f
11:04am 2.5ft 6s 7
mph
1015.6mb 67f 65f
9:04am 2.5ft 8s 7
mph
1016mb 67f 65f
8:04am 2.5ft 6s 7
mph
1016.2mb 67f 64f
7:04am 2.5ft 8s 2 4 mph 1015.5mb 67f 64f
6:04am 2.5ft 8s  -  mph - 67f -
5:04am 2.5ft 6s  -  mph - 66f -
4:04am 3.5ft 6s  -  mph - 65f -
2:04am 3ft 6s 11 13 mph 1016.1mb 65f 63f
1:04am 3.5ft 6s 11 13 mph 1016.1mb 65f 63f
12:04am 3.5ft 8s 16 18 mph 1015.9mb 66f 64f
Tue 09/01 11:04pm 3.5ft 5s 16 18 mph 1016mb 66f 64f
10:04pm  -   -  16 20 mph 1016mb - 64f
9:04pm 4.5ft 5s 18 22 mph 1015.6mb 67f 64f
8:04pm 5ft 5s 18 22 mph 1015.1mb 67f 64f
7:04pm 4.5ft 8s 18 20 mph 1015mb 68f 64f
6:04pm 4.5ft 5s 18 20 mph 1015.1mb 68f 63f
5:04pm 4ft 6s 18 20 mph 1014.8mb 68f 63f
4:04pm 4.5ft 5s 16 20 mph 1015mb 68f 63f
2:04pm 3.5ft 5s 16 18 mph 1014.3mb 67f 63f
1:04pm 3.5ft 5s 18 20 mph 1014.3mb 67f 63f
12:04pm 3ft 5s 16 18 mph 1014.1mb 66f 64f
11:04am 3.5ft 5s 18 20 mph 1013.9mb 66f 64f
10:04am 3.5ft 4s 20 25 mph 1013.7mb 67f 64f
9:04am 4ft 4s 22 25 mph 1013.4mb 66f 65f
8:04am 3ft 4s 20 22 mph 1012.5mb 67f 66f
7:04am 3.5ft 5s 18 20 mph 1012mb 67f 66f
6:04am 4.5ft 11s 18 20 mph 1011.2mb 66f 67f
5:04am 2.5ft 4s 16 18 mph 1010.9mb 67f 68f
4:04am 3ft 5s 16 18 mph 1010.4mb 67f 69f
3:04am 3.5ft 4s 13 16 mph 1010.3mb 67f 69f
2:04am 3ft 4s 13 16 mph 1010.4mb 67f 69f
1:04am 2.5ft 4s 13 18 mph 1010.3mb 67f 68f
Mon 08/31 11:04pm 2ft 4s 16 18 mph 1010.2mb 67f 68f
10:04pm 2.5ft 5s 16 18 mph 1010.3mb 67f 68f
9:04pm 3.5ft 11s 13 16 mph 1010.1mb 67f 68f
6:04pm 3.5ft 8s 16 18 mph 1010.1mb 67f 67f
5:04pm 2ft 4s 16 18 mph 1010.1mb 67f 67f
4:04pm 2.5ft 8s 13 18 mph 1010.7mb 67f 67f
3:04pm 3.5ft 11s 13 16 mph 1011.5mb 67f 67f
1:04pm 2.5ft 11s 11 13 mph 1012.6mb 67f 67f
10:04am 2.5ft 11s 9 11 mph 1013.6mb 67f 67f
9:04am 2.5ft 8s 11 13 mph 1013.7mb 67f 67f
8:04am 2.5ft 8s 7
mph
1013.9mb 67f 67f
7:04am 2.5ft 4s 9 11 mph 1013.9mb 67f 66f
6:04am 3.5ft 8s 11 13 mph 1014.1mb 67f 67f
5:04am 2.5ft 4s 13 16 mph 1014.3mb 66f 67f
4:04am 2.5ft 5s 11 13 mph 1014.6mb 67f 67f
3:04am 4ft 11s 16 18 mph 1015mb 67f 67f
2:04am 2.5ft 5s 13 16 mph 1015.3mb 67f 67f
1:04am  -   -  11 16 mph 1015.9mb 67f 67f
12:04am 3.5ft 11s 11 13 mph 1016mb 67f 67f
Sun 08/30 11:04pm 3ft 11s 11 13 mph 1016.2mb 68f 68f
10:04pm 2.5ft 11s 11 13 mph 1016.4mb 68f 68f
9:04pm 2.5ft 11s  -  mph - 68f -
8:04pm 2.5ft 8s 11 13 mph 1016.1mb 68f 68f
7:04pm 3.5ft 11s 11 13 mph 1016.2mb 68f 68f
6:04pm 3.5ft 11s 11
mph
1016.3mb 69f 68f
5:04pm 3.5ft 11s 9 11 mph 1016.7mb 69f 69f
4:04pm 3.5ft 11s 11 13 mph 1017.2mb 68f 69f
3:04pm 3.5ft 11s 11 13 mph 1017.6mb 67f 69f
2:04pm 3.5ft 11s 11 13 mph 1018mb 67f 68f
1:04pm 2.5ft 3s 11 13 mph 1017.9mb 67f 68f
12:04pm 3.5ft 11s 13 16 mph 1018.3mb 67f 68f
11:04am 3.5ft 11s 13 16 mph 1018.4mb 67f 68f
10:04am 3.5ft 11s 11 13 mph 1018.3mb 67f 68f